St. Moritz, Switzerland
Current Conditions -  °F | °C
As of 5:20 PM on Saturday 20 Dec 2014 (Local Time) from LSZS Reporting Station
Clear Clear  
Wind Chill: 21°   Ceiling: Unl
Heat Index: 27°   Visibility: 6mi
Dew Point: 18°   Wind: 5mph
Humidity: 69%   Direction: 200°SSW
Pressure: 30.15"   Gusts: NA
Location:  46.5°N, 9.84°E
Report Text: LSZS 201620Z 20004KT CAVOK M03/M08 Q1021
Loading
Personal Weather Stations






























Interactive Weather Map New forecast layout! Learn more

10-Day Weather Forecast

Advertisements
Track Severe Weather on mobile